Skip Navigation LinksHome page > Weather > Current weather Skip Navigation Links

Current Weather

Ndjamena, Chad

For information only: do not use for flight planning or navigation.
Latest weather
Observation time Monday, December 18, 2017 1:00 PM WAT
Local time Monday, December 18, 2017 1:31 PM WAT
Flight conditions Marginal Visual Meteorological Conditions
Winds
Wind direction South-Southwest (200°)
Winds variable from 180° to 240°
Wind speed 6 mph
Visibility 5 mi.
Sky condition
Ceiling unlimited
Temperature 97°F
Dewpoint 30°F
Altimeter 29.80 in.Hg
Derived measurements
Relative humidity 10%
Heat index 97°F
Density altitude 2908 ft.
Remarks
No significant changes expected in the next two hours.
METAR FTTJ 181200Z 20005KT 180V240 8000 NSC 36/M01 Q1009 NOSIG

Settings

Location code

InnerDrive.Weather 4.0.6144.1 Release CLR 4.0.30319.36366
Copyright ©2015 Inner Drive Technology. All rights reserved. Portions Copyright ©1986-2015 David Braverman.

Find weather

Site navigation


Skip Navigation Links

Place info

Page info

PayPal - The safer, easier way to pay online!

Return home.

Copyright ©2017 Inner Drive Technology. Purveyors of fine, hand-crafted computer software. Page printed 2017-12-18T12:31:16 UTC.